createdAt,value
2022-08-23T00:02:25.349Z,31.10
2022-08-23T00:05:07.590Z,30.88
2022-08-23T00:07:41.839Z,29.48
2022-08-23T00:10:11.806Z,29.45
2022-08-23T00:12:39.707Z,26.92
2022-08-23T00:15:09.085Z,26.38
2022-08-23T00:17:37.191Z,31.00
2022-08-23T00:20:08.722Z,27.75
2022-08-23T00:22:36.817Z,28.75
2022-08-23T00:25:05.590Z,29.00
2022-08-23T00:27:33.612Z,29.83
2022-08-23T00:30:01.362Z,29.40
2022-08-23T00:32:32.033Z,27.30
2022-08-23T00:35:00.532Z,26.98
2022-08-23T00:37:29.632Z,32.92
2022-08-23T00:39:56.831Z,31.23
2022-08-23T00:42:52.917Z,33.33
2022-08-23T00:45:46.660Z,27.02
2022-08-23T00:48:14.673Z,27.05
2022-08-23T00:50:52.699Z,29.33
2022-08-23T00:53:44.140Z,32.03
2022-08-23T00:56:14.123Z,29.30
2022-08-23T00:58:42.989Z,31.70
2022-08-23T01:01:10.256Z,29.15
2022-08-23T01:03:40.184Z,31.08
2022-08-23T01:06:32.668Z,28.52
2022-08-23T01:09:04.136Z,29.23
2022-08-23T01:11:40.639Z,26.65
2022-08-23T01:14:15.981Z,29.23
2022-08-23T01:16:50.815Z,27.52
2022-08-23T01:19:25.397Z,28.80
2022-08-23T01:22:05.288Z,31.30
2022-08-23T01:25:07.227Z,27.85
2022-08-23T01:27:21.002Z,29.27
2022-08-23T01:29:48.465Z,30.65
2022-08-23T01:32:16.668Z,27.95
2022-08-23T01:34:44.756Z,27.77
2022-08-23T01:37:16.807Z,32.25
2022-08-23T01:39:44.363Z,30.90
2022-08-23T01:42:12.556Z,28.50
2022-08-23T01:44:40.547Z,30.95
2022-08-23T01:47:07.966Z,31.35
2022-08-23T01:49:35.490Z,26.77
2022-08-23T01:52:03.306Z,26.85
2022-08-23T01:54:30.625Z,35.00
2022-08-23T01:56:57.894Z,28.00
2022-08-23T01:59:26.146Z,29.40
2022-08-23T02:01:54.873Z,28.02
2022-08-23T02:04:22.841Z,30.88
2022-08-23T02:06:50.298Z,29.13
2022-08-23T02:09:21.632Z,31.95
2022-08-23T02:11:55.355Z,27.73
2022-08-23T02:14:22.660Z,30.20
2022-08-23T02:17:04.592Z,28.30
2022-08-23T02:22:06.502Z,26.77
2022-08-23T02:24:34.589Z,29.58
2022-08-23T02:27:05.272Z,32.75
2022-08-23T02:29:39.125Z,29.35
2022-08-23T02:32:07.340Z,31.95
2022-08-23T02:34:37.302Z,29.92
2022-08-23T02:37:06.023Z,28.23
2022-08-23T02:39:33.066Z,29.63
2022-08-23T02:42:01.192Z,29.85
2022-08-23T02:44:31.555Z,30.38
2022-08-23T02:46:58.663Z,29.05
2022-08-23T02:49:25.908Z,29.95
2022-08-23T02:51:53.000Z,28.10
2022-08-23T02:54:20.164Z,28.83
2022-08-23T02:56:47.595Z,27.77
2022-08-23T02:59:15.104Z,29.63
2022-08-23T03:01:42.189Z,29.95
2022-08-23T03:04:32.225Z,29.98
2022-08-23T03:06:59.370Z,31.02
2022-08-23T03:09:27.726Z,24.52
2022-08-23T03:11:54.694Z,28.95
2022-08-23T03:14:22.335Z,33.78
2022-08-23T03:16:49.771Z,29.05
2022-08-23T03:19:17.208Z,33.25
2022-08-23T03:21:45.230Z,31.25
2022-08-23T03:24:15.278Z,31.17
2022-08-23T03:26:44.505Z,29.88
2022-08-23T03:29:13.108Z,31.52
2022-08-23T03:31:57.161Z,29.40
2022-08-23T03:34:25.992Z,30.13
2022-08-23T03:36:53.925Z,27.50
2022-08-23T03:39:20.958Z,28.00
2022-08-23T03:41:48.660Z,27.42
2022-08-23T03:44:15.877Z,31.95
2022-08-23T03:46:44.453Z,28.08
2022-08-23T03:49:12.053Z,27.40
2022-08-23T03:51:53.344Z,31.02
2022-08-23T03:54:22.763Z,29.13
2022-08-23T03:57:00.728Z,28.42
2022-08-23T03:59:33.111Z,26.77
2022-08-23T04:02:01.698Z,27.58
2022-08-23T04:04:30.450Z,26.17
2022-08-23T04:07:30.518Z,26.35
2022-08-23T04:09:58.743Z,30.23
2022-08-23T04:12:31.262Z,30.30
2022-08-23T04:14:58.569Z,27.02
2022-08-23T04:17:26.326Z,28.55
2022-08-23T04:19:53.518Z,26.42
2022-08-23T04:22:21.492Z,26.00
2022-08-23T04:24:49.285Z,27.27
2022-08-23T04:27:17.376Z,28.17
2022-08-23T04:29:46.108Z,29.48
2022-08-23T04:32:15.133Z,28.10
2022-08-23T04:34:55.418Z,28.70
2022-08-23T04:37:23.488Z,29.50
2022-08-23T04:40:09.159Z,29.60
2022-08-23T04:42:41.874Z,25.98
2022-08-23T04:45:09.640Z,28.88
2022-08-23T04:47:41.511Z,26.27
2022-08-23T04:50:10.396Z,28.67
2022-08-23T04:52:51.562Z,30.73
2022-08-23T04:55:20.632Z,27.73
2022-08-23T04:57:52.300Z,25.02
2022-08-23T05:00:27.903Z,28.85
2022-08-23T05:02:57.118Z,26.63
2022-08-23T05:05:25.464Z,26.20
2022-08-23T05:07:52.505Z,32.20
2022-08-23T05:10:20.112Z,27.33
2022-08-23T05:12:51.318Z,31.35
2022-08-23T05:15:20.875Z,26.52
2022-08-23T05:17:54.027Z,23.80
2022-08-23T05:20:21.689Z,25.33
2022-08-23T05:22:50.675Z,27.17
2022-08-23T05:25:53.267Z,25.67
2022-08-23T05:28:31.148Z,24.73
2022-08-23T05:31:03.498Z,27.58
2022-08-23T05:33:37.526Z,27.80
2022-08-23T05:36:06.026Z,25.67
2022-08-23T05:38:34.473Z,24.25
2022-08-23T05:41:02.493Z,23.60
2022-08-23T05:43:33.610Z,24.08
2022-08-23T05:46:05.007Z,23.65
2022-08-23T05:48:38.199Z,22.83
2022-08-23T05:51:18.368Z,24.27
2022-08-23T05:53:48.011Z,22.55
2022-08-23T05:56:36.147Z,25.67
2022-08-23T05:59:06.853Z,24.20
2022-08-23T06:01:40.681Z,25.27
2022-08-23T06:04:13.728Z,20.50
2022-08-23T06:06:43.832Z,22.45
2022-08-23T06:09:14.917Z,23.58
2022-08-23T06:11:47.376Z,26.85
2022-08-23T06:14:15.424Z,24.90
2022-08-23T06:16:50.789Z,22.30
2022-08-23T06:19:24.219Z,23.23
2022-08-23T06:22:09.918Z,20.48
2022-08-23T06:24:41.067Z,21.27
2022-08-23T06:27:13.904Z,23.38
2022-08-23T06:29:41.759Z,21.17
2022-08-23T06:32:27.517Z,22.73
2022-08-23T06:35:14.891Z,24.13
2022-08-23T06:38:10.947Z,20.95
2022-08-23T06:40:47.208Z,22.65
2022-08-23T06:43:26.521Z,20.48
2022-08-23T06:46:19.209Z,20.05
2022-08-23T06:48:47.667Z,22.95
2022-08-23T06:51:45.046Z,21.13
2022-08-23T06:54:26.546Z,21.85
2022-08-23T06:57:20.895Z,23.73
2022-08-23T07:00:26.523Z,19.30
2022-08-23T07:03:00.432Z,20.90
2022-08-23T07:05:53.950Z,19.38
2022-08-23T07:08:25.081Z,18.35
2022-08-23T07:10:52.418Z,20.75
2022-08-23T07:13:19.721Z,24.20
2022-08-23T07:15:50.187Z,24.88
2022-08-23T07:18:20.330Z,22.52
2022-08-23T07:20:47.412Z,22.42
2022-08-23T07:23:15.824Z,22.92
2022-08-23T07:25:43.985Z,22.02
2022-08-23T07:28:14.754Z,20.13
2022-08-23T07:30:45.330Z,27.00
2022-08-23T07:33:14.228Z,21.98
2022-08-23T07:36:00.391Z,25.85
2022-08-23T07:38:30.521Z,23.60
2022-08-23T07:40:59.627Z,22.92
2022-08-23T07:43:26.921Z,21.55
2022-08-23T07:45:55.201Z,22.60
2022-08-23T07:48:43.315Z,21.05
2022-08-23T07:51:16.106Z,19.48
2022-08-23T07:53:46.302Z,21.55
2022-08-23T07:56:18.692Z,21.35
2022-08-23T07:59:06.081Z,23.88
2022-08-23T08:01:36.080Z,21.02
2022-08-23T08:04:05.193Z,21.50
2022-08-23T08:07:04.800Z,20.80
2022-08-23T08:09:38.249Z,16.50
2022-08-23T08:12:05.627Z,16.98
2022-08-23T08:14:33.700Z,20.70
2022-08-23T08:17:03.725Z,18.58
2022-08-23T08:19:53.455Z,18.90
2022-08-23T08:22:58.343Z,19.33
2022-08-23T08:25:44.394Z,18.63
2022-08-23T08:28:16.152Z,16.48
2022-08-23T08:30:43.786Z,15.68
2022-08-23T08:33:11.272Z,19.58
2022-08-23T08:35:38.889Z,17.48
2022-08-23T08:38:06.746Z,15.50
2022-08-23T08:40:40.227Z,14.45
2022-08-23T08:43:34.899Z,18.52
2022-08-23T08:46:05.432Z,17.83
2022-08-23T08:48:42.348Z,16.17
2022-08-23T08:51:50.855Z,17.48
2022-08-23T08:54:25.002Z,14.75
2022-08-23T08:56:59.631Z,23.20
2022-08-23T08:59:56.425Z,18.65
2022-08-23T09:02:32.419Z,14.32
2022-08-23T09:05:10.215Z,14.75
2022-08-23T09:08:04.651Z,14.88
2022-08-23T09:10:50.696Z,15.57
2022-08-23T09:13:46.248Z,13.25
2022-08-23T09:16:28.871Z,18.05
2022-08-23T09:18:57.190Z,14.93
2022-08-23T09:21:24.952Z,15.55
2022-08-23T09:24:00.805Z,19.20
2022-08-23T09:26:48.416Z,16.08
2022-08-23T09:29:29.671Z,14.73
2022-08-23T09:32:02.480Z,14.63
2022-08-23T09:34:38.174Z,12.98
2022-08-23T09:37:10.023Z,15.13
2022-08-23T09:39:45.074Z,13.25
2022-08-23T09:43:03.791Z,17.20
2022-08-23T09:45:37.127Z,11.73
2022-08-23T09:48:12.255Z,14.73
2022-08-23T09:50:54.943Z,11.35
2022-08-23T09:53:41.128Z,11.30
2022-08-23T09:56:15.556Z,11.20
2022-08-23T09:58:47.051Z,14.00
2022-08-23T10:01:23.121Z,11.50
2022-08-23T10:04:07.295Z,11.65
2022-08-23T10:06:34.557Z,10.00
2022-08-23T10:09:07.973Z,12.52
2022-08-23T10:11:46.411Z,11.80
2022-08-23T10:14:17.817Z,11.60
2022-08-23T10:16:59.033Z,10.23
2022-08-23T10:19:40.883Z,9.60
2022-08-23T10:22:29.516Z,10.20
2022-08-23T10:25:33.355Z,9.95
2022-08-23T10:28:35.769Z,12.23
2022-08-23T10:31:42.754Z,10.38
2022-08-23T10:34:25.953Z,10.68
2022-08-23T10:37:06.218Z,11.95
2022-08-23T10:42:39.269Z,10.63
2022-08-23T10:45:17.401Z,9.90
2022-08-23T10:48:29.548Z,11.88
2022-08-23T10:51:17.878Z,10.15
2022-08-23T10:54:16.369Z,9.52
2022-08-23T10:56:50.995Z,10.20
2022-08-23T10:59:24.267Z,9.68
2022-08-23T11:02:35.746Z,11.60
2022-08-23T11:05:27.880Z,11.35
2022-08-23T11:08:11.485Z,10.70
2022-08-23T11:10:40.326Z,14.63
2022-08-23T11:13:13.953Z,7.28
2022-08-23T11:16:05.480Z,9.25
2022-08-23T11:18:48.725Z,7.68
2022-08-23T11:21:25.931Z,8.90
2022-08-23T11:24:22.486Z,7.40
2022-08-23T11:26:52.318Z,7.53
2022-08-23T11:29:22.547Z,10.65
2022-08-23T11:32:17.350Z,8.05
2022-08-23T11:34:57.974Z,8.77
2022-08-23T11:37:47.830Z,11.05
2022-08-23T11:40:18.396Z,7.60
2022-08-23T11:42:53.213Z,13.85
2022-08-23T11:45:35.904Z,11.27
2022-08-23T11:48:22.912Z,9.57
2022-08-23T11:51:08.353Z,8.63
2022-08-23T11:53:49.510Z,8.43
2022-08-23T11:56:28.437Z,8.60
2022-08-23T11:59:23.800Z,11.98
2022-08-23T12:01:51.241Z,9.32
2022-08-23T12:04:47.360Z,9.32
2022-08-23T12:07:14.647Z,9.10
2022-08-23T12:09:41.684Z,9.63
2022-08-23T12:12:14.366Z,9.85
2022-08-23T12:14:45.410Z,8.73
2022-08-23T12:17:12.431Z,11.63
2022-08-23T12:19:48.898Z,8.23
2022-08-23T12:22:19.965Z,8.93
2022-08-23T12:24:54.455Z,9.32
2022-08-23T12:27:33.763Z,9.82
2022-08-23T12:30:11.003Z,10.13
2022-08-23T12:32:50.127Z,12.23
2022-08-23T12:35:30.356Z,11.45
2022-08-23T12:38:32.713Z,10.40
2022-08-23T12:41:23.134Z,8.38
2022-08-23T12:44:08.145Z,9.63
2022-08-23T12:46:35.315Z,9.18
2022-08-23T12:49:02.698Z,8.70
2022-08-23T12:51:30.200Z,7.78
2022-08-23T12:53:57.348Z,11.50
2022-08-23T12:56:31.921Z,9.15
2022-08-23T13:01:35.867Z,7.63
2022-08-23T13:04:14.699Z,9.98
2022-08-23T13:06:55.187Z,10.02
2022-08-23T13:09:30.174Z,8.25
2022-08-23T13:11:59.105Z,9.68
2022-08-23T13:14:45.525Z,7.22
2022-08-23T13:17:27.543Z,8.90
2022-08-23T13:20:18.913Z,7.53
2022-08-23T13:23:01.104Z,9.52
2022-08-23T13:25:33.017Z,11.32
2022-08-23T13:28:28.441Z,8.75
2022-08-23T13:31:11.111Z,7.07
2022-08-23T13:33:40.993Z,7.47
2022-08-23T13:36:21.380Z,9.73
2022-08-23T13:38:49.660Z,7.32
2022-08-23T13:41:30.546Z,8.85
2022-08-23T13:43:58.065Z,6.82
2022-08-23T13:46:28.520Z,7.97
2022-08-23T13:49:18.346Z,9.82
2022-08-23T13:52:38.081Z,9.63
2022-08-23T13:54:50.737Z,11.68
2022-08-23T13:57:21.781Z,8.95
2022-08-23T13:59:53.233Z,7.43
2022-08-23T14:02:22.691Z,10.38
2022-08-23T14:04:49.800Z,9.18
2022-08-23T14:07:17.792Z,8.07
2022-08-23T14:09:45.463Z,9.40
2022-08-23T14:12:19.208Z,9.18
2022-08-23T14:14:47.355Z,8.18
2022-08-23T14:17:16.621Z,8.55
2022-08-23T14:22:35.079Z,7.20
2022-08-23T14:25:02.236Z,10.00
2022-08-23T14:27:29.844Z,10.27
2022-08-23T14:29:56.867Z,7.93
2022-08-23T14:32:24.416Z,9.18
2022-08-23T14:34:52.809Z,7.40
2022-08-23T14:38:00.635Z,7.65
2022-08-23T14:40:09.029Z,8.32
2022-08-23T14:42:37.448Z,7.88
2022-08-23T14:45:05.587Z,9.02
2022-08-23T14:47:35.447Z,7.95
2022-08-23T14:50:05.769Z,8.75
2022-08-23T14:52:33.434Z,8.07
2022-08-23T14:55:00.390Z,7.80
2022-08-23T14:57:27.464Z,7.82
2022-08-23T14:59:56.095Z,6.88
2022-08-23T15:02:25.510Z,8.27
2022-08-23T15:04:54.649Z,10.00
2022-08-23T15:07:22.303Z,10.02
2022-08-23T15:09:51.519Z,9.07
2022-08-23T15:15:12.843Z,8.07
2022-08-23T15:18:09.327Z,9.65
2022-08-23T15:20:38.534Z,9.13
2022-08-23T15:23:08.039Z,6.70
2022-08-23T15:25:39.804Z,8.23
2022-08-23T15:28:13.455Z,9.88
2022-08-23T15:30:42.784Z,10.77
2022-08-23T15:33:10.744Z,12.73
2022-08-23T15:35:44.972Z,12.75
2022-08-23T15:38:15.804Z,9.70
2022-08-23T15:40:43.550Z,8.85
2022-08-23T15:43:10.946Z,10.73
2022-08-23T15:45:38.491Z,7.15
2022-08-23T15:48:28.101Z,11.70
2022-08-23T15:50:55.821Z,9.93
2022-08-23T15:53:23.010Z,7.88
2022-08-23T15:55:51.031Z,8.35
2022-08-23T15:58:25.069Z,8.00
2022-08-23T16:00:53.536Z,9.25
2022-08-23T16:03:22.589Z,10.57
2022-08-23T16:05:52.964Z,7.53
2022-08-23T16:08:32.405Z,7.45
2022-08-23T16:10:59.801Z,8.60
2022-08-23T16:13:27.476Z,7.68
2022-08-23T16:15:54.587Z,11.05
2022-08-23T16:18:21.632Z,6.68
2022-08-23T16:20:48.915Z,8.75
2022-08-23T16:23:21.238Z,12.23
2022-08-23T16:25:48.180Z,12.00
2022-08-23T16:28:15.480Z,11.45
2022-08-23T16:30:42.725Z,10.25
2022-08-23T16:33:09.904Z,13.30
2022-08-23T16:35:37.707Z,15.48
2022-08-23T16:38:04.859Z,10.40
2022-08-23T16:40:31.941Z,12.40
2022-08-23T16:42:59.106Z,13.85
2022-08-23T16:45:26.651Z,17.88
2022-08-23T16:47:53.931Z,20.15
2022-08-23T16:50:20.901Z,18.02
2022-08-23T16:52:47.948Z,17.63
2022-08-23T16:55:15.035Z,23.15
2022-08-23T16:57:42.325Z,21.05
2022-08-23T17:00:14.407Z,18.85
2022-08-23T17:02:42.230Z,20.90
2022-08-23T17:05:11.959Z,21.90
2022-08-23T17:07:39.599Z,25.08
2022-08-23T17:10:08.487Z,25.35
2022-08-23T17:12:38.134Z,27.98
2022-08-23T17:15:06.741Z,30.42
2022-08-23T17:17:33.870Z,32.88
2022-08-23T17:20:00.932Z,33.72
2022-08-23T17:22:28.064Z,37.78
2022-08-23T17:24:55.051Z,45.08
2022-08-23T17:27:22.143Z,42.33
2022-08-23T17:29:49.353Z,40.67
2022-08-23T17:32:18.703Z,43.97
2022-08-23T17:34:45.719Z,45.53
2022-08-23T17:37:18.576Z,48.13
2022-08-23T17:39:46.216Z,46.67
2022-08-23T17:42:13.663Z,47.70
2022-08-23T17:44:40.819Z,46.80
2022-08-23T17:47:15.028Z,47.35
2022-08-23T17:49:44.610Z,53.30
2022-08-23T17:52:12.328Z,48.03
2022-08-23T17:54:40.401Z,55.08
2022-08-23T17:57:09.562Z,49.95
2022-08-23T17:59:37.657Z,49.83
2022-08-23T18:02:05.503Z,57.97
2022-08-23T18:04:34.620Z,59.50
2022-08-23T18:07:02.195Z,57.03
2022-08-23T18:09:29.538Z,54.72
2022-08-23T18:11:56.772Z,58.58
2022-08-23T18:14:23.877Z,57.53
2022-08-23T18:16:51.556Z,60.25
2022-08-23T18:19:18.693Z,61.30
2022-08-23T18:21:47.038Z,59.40
2022-08-23T18:24:14.516Z,59.15
2022-08-23T18:27:01.740Z,59.28
2022-08-23T18:29:33.019Z,58.40
2022-08-23T18:32:00.561Z,61.60
2022-08-23T18:34:28.323Z,62.03
2022-08-23T18:36:56.092Z,63.80
2022-08-23T18:39:27.647Z,62.95
2022-08-23T18:42:01.398Z,66.45
2022-08-23T18:44:29.399Z,61.45
2022-08-23T18:46:56.551Z,61.00
2022-08-23T18:49:24.183Z,65.55
2022-08-23T18:51:51.277Z,60.13
2022-08-23T18:54:18.692Z,62.80
2022-08-23T18:56:46.045Z,64.50
2022-08-23T18:59:13.329Z,63.55
2022-08-23T19:01:42.535Z,65.53
2022-08-23T19:04:10.842Z,61.83
2022-08-23T19:06:40.186Z,65.05
2022-08-23T19:09:08.790Z,63.70
2022-08-23T19:11:39.641Z,65.47
2022-08-23T19:14:07.413Z,64.10
2022-08-23T19:16:37.166Z,64.82
2022-08-23T19:19:05.273Z,68.55
2022-08-23T19:21:33.778Z,64.82
2022-08-23T19:24:02.032Z,67.57
2022-08-23T19:26:34.413Z,67.07
2022-08-23T19:29:09.354Z,61.92
2022-08-23T19:31:42.975Z,63.35
2022-08-23T19:34:12.737Z,62.45
2022-08-23T19:36:51.163Z,64.65
2022-08-23T19:39:26.924Z,61.63
2022-08-23T19:41:54.411Z,64.22
2022-08-23T19:44:21.644Z,61.97
2022-08-23T19:46:48.956Z,61.05
2022-08-23T19:49:16.774Z,59.75
2022-08-23T19:51:43.996Z,61.25
2022-08-23T19:54:12.924Z,61.15
2022-08-23T19:56:48.522Z,65.82
2022-08-23T19:59:20.494Z,62.90
2022-08-23T20:01:49.320Z,60.22
2022-08-23T20:04:17.189Z,55.50
2022-08-23T20:06:44.378Z,60.33
2022-08-23T20:09:12.066Z,58.25
2022-08-23T20:11:39.806Z,61.83
2022-08-23T20:14:08.023Z,55.83
2022-08-23T20:16:36.392Z,59.17
2022-08-23T20:19:06.666Z,57.78
2022-08-23T20:21:34.092Z,59.03
2022-08-23T20:24:10.451Z,51.67
2022-08-23T20:26:54.052Z,55.15
2022-08-23T20:29:22.972Z,54.45
2022-08-23T20:31:56.227Z,53.55
2022-08-23T20:34:27.091Z,55.40
2022-08-23T20:36:56.388Z,54.67
2022-08-23T20:39:24.795Z,55.72
2022-08-23T20:41:53.024Z,53.10
2022-08-23T20:44:24.430Z,55.08
2022-08-23T20:46:55.341Z,59.95
2022-08-23T20:49:25.203Z,52.35
2022-08-23T20:51:52.331Z,53.95
2022-08-23T20:54:20.155Z,55.85
2022-08-23T20:56:50.707Z,53.58
2022-08-23T20:59:18.605Z,57.70
2022-08-23T21:01:45.773Z,54.53
2022-08-23T21:04:15.047Z,53.67
2022-08-23T21:06:48.218Z,54.85
2022-08-23T21:09:19.533Z,56.92
2022-08-23T21:11:48.137Z,53.17
2022-08-23T21:14:18.555Z,52.55
2022-08-23T21:16:47.876Z,52.83
2022-08-23T21:19:15.930Z,57.40
2022-08-23T21:21:43.311Z,56.60
2022-08-23T21:24:20.857Z,55.47
2022-08-23T21:26:50.920Z,53.92
2022-08-23T21:29:18.263Z,56.45
2022-08-23T21:31:46.237Z,54.92
2022-08-23T21:34:23.754Z,53.47
2022-08-23T21:36:55.610Z,52.08
2022-08-23T21:39:23.395Z,54.30
2022-08-23T21:41:51.107Z,51.05
2022-08-23T21:44:21.083Z,51.15
2022-08-23T21:46:49.004Z,51.35
2022-08-23T21:49:16.749Z,51.15
2022-08-23T21:51:45.550Z,53.03
2022-08-23T21:54:13.437Z,52.75
2022-08-23T21:56:41.366Z,54.42
2022-08-23T21:59:11.496Z,52.65
2022-08-23T22:01:38.859Z,52.83
2022-08-23T22:04:08.563Z,55.17
2022-08-23T22:06:37.192Z,49.88
2022-08-23T22:09:07.028Z,50.10
2022-08-23T22:11:41.486Z,48.28
2022-08-23T22:14:10.783Z,52.05
2022-08-23T22:16:38.160Z,51.42
2022-08-23T22:19:05.585Z,49.40
2022-08-23T22:21:35.424Z,47.92
2022-08-23T22:24:02.968Z,51.05
2022-08-23T22:26:30.345Z,49.35
2022-08-23T22:28:57.395Z,45.80
2022-08-23T22:31:24.875Z,47.97
2022-08-23T22:33:52.925Z,48.35
2022-08-23T22:36:22.832Z,43.80
2022-08-23T22:38:51.399Z,44.50
2022-08-23T22:41:22.056Z,43.38
2022-08-23T22:43:49.172Z,45.90
2022-08-23T22:46:18.082Z,43.08
2022-08-23T22:48:45.212Z,44.88
2022-08-23T22:51:15.145Z,45.33
2022-08-23T22:53:45.647Z,42.95
2022-08-23T22:56:15.320Z,43.85
2022-08-23T22:58:43.135Z,46.67
2022-08-23T23:01:13.047Z,42.85
2022-08-23T23:03:42.076Z,41.78
2022-08-23T23:06:09.813Z,40.95
2022-08-23T23:08:37.142Z,42.25
2022-08-23T23:11:07.675Z,40.85
2022-08-23T23:13:35.059Z,44.38
2022-08-23T23:16:04.122Z,39.90
2022-08-23T23:18:31.219Z,42.70
2022-08-23T23:21:00.786Z,44.13
2022-08-23T23:23:29.272Z,43.92
2022-08-23T23:25:56.543Z,43.33
2022-08-23T23:28:23.556Z,41.03
2022-08-23T23:30:52.526Z,40.75
2022-08-23T23:33:21.201Z,42.55
2022-08-23T23:35:49.006Z,43.70
2022-08-23T23:38:16.850Z,40.40
2022-08-23T23:40:44.543Z,37.78
2022-08-23T23:43:13.068Z,38.10
2022-08-23T23:45:41.411Z,37.55
2022-08-23T23:48:10.235Z,39.33
2022-08-23T23:50:45.149Z,38.60
2022-08-23T23:53:14.109Z,35.83
2022-08-23T23:55:42.057Z,36.42
2022-08-23T23:58:10.361Z,35.83
